createdAt,value
2022-10-07T00:01:01.558Z,3.43
2022-10-07T00:03:30.005Z,3.40
2022-10-07T00:06:11.665Z,3.10
2022-10-07T00:08:42.247Z,3.03
2022-10-07T00:11:27.302Z,4.00
2022-10-07T00:13:59.213Z,3.50
2022-10-07T00:16:32.353Z,3.90
2022-10-07T00:19:03.716Z,4.30
2022-10-07T00:21:34.905Z,3.43
2022-10-07T00:24:02.581Z,4.63
2022-10-07T00:26:32.876Z,4.37
2022-10-07T00:29:00.486Z,4.53
2022-10-07T00:31:35.606Z,3.80
2022-10-07T00:34:04.199Z,4.63
2022-10-07T00:36:35.756Z,4.37
2022-10-07T00:39:12.210Z,4.53
2022-10-07T00:41:52.371Z,4.27
2022-10-07T00:44:41.886Z,4.60
2022-10-07T00:47:29.690Z,4.07
2022-10-07T00:50:23.639Z,4.53
2022-10-07T00:53:02.096Z,4.10
2022-10-07T00:55:31.638Z,4.17
2022-10-07T00:58:08.654Z,4.40
2022-10-07T01:00:38.884Z,4.03
2022-10-07T01:03:06.251Z,4.40
2022-10-07T01:05:33.243Z,5.23
2022-10-07T01:08:01.186Z,5.20
2022-10-07T01:10:49.621Z,5.20
2022-10-07T01:13:45.354Z,4.50
2022-10-07T01:16:44.583Z,4.77
2022-10-07T01:20:01.224Z,4.87
2022-10-07T01:23:23.951Z,4.20
2022-10-07T01:26:37.036Z,3.83
2022-10-07T01:29:26.508Z,3.73
2022-10-07T01:32:40.359Z,4.20
2022-10-07T01:35:15.602Z,4.50
2022-10-07T01:37:49.243Z,3.93
2022-10-07T01:40:24.034Z,3.90
2022-10-07T01:42:54.269Z,4.27
2022-10-07T01:45:24.860Z,4.67
2022-10-07T01:47:52.236Z,4.10
2022-10-07T01:50:25.310Z,3.67
2022-10-07T01:53:26.515Z,4.30
2022-10-07T01:56:42.010Z,4.30
2022-10-07T01:59:53.073Z,3.93
2022-10-07T02:03:04.921Z,4.10
2022-10-07T02:05:46.666Z,3.87
2022-10-07T02:08:52.335Z,3.50
2022-10-07T02:11:27.914Z,3.93
2022-10-07T02:14:29.690Z,4.10
2022-10-07T02:17:14.234Z,4.33
2022-10-07T02:19:53.381Z,3.97
2022-10-07T02:22:27.887Z,4.27
2022-10-07T02:24:59.052Z,5.53
2022-10-07T02:27:34.962Z,4.07
2022-10-07T02:30:15.190Z,4.30
2022-10-07T02:32:53.918Z,4.60
2022-10-07T02:35:47.386Z,4.67
2022-10-07T02:38:18.411Z,4.40
2022-10-07T02:41:31.362Z,4.87
2022-10-07T02:44:33.621Z,4.87
2022-10-07T02:47:22.125Z,4.20
2022-10-07T02:49:53.175Z,4.27
2022-10-07T02:52:22.218Z,5.00
2022-10-07T02:55:04.984Z,4.50
2022-10-07T02:57:39.924Z,4.50
2022-10-07T03:00:11.370Z,5.03
2022-10-07T03:02:44.912Z,4.33
2022-10-07T03:05:13.666Z,4.43
2022-10-07T03:07:42.064Z,4.53
2022-10-07T03:10:09.962Z,4.20
2022-10-07T03:12:36.884Z,3.77
2022-10-07T03:15:04.286Z,3.60
2022-10-07T03:17:31.224Z,4.00
2022-10-07T03:19:58.157Z,4.50
2022-10-07T03:22:25.090Z,3.97
2022-10-07T03:24:52.198Z,4.13
2022-10-07T03:27:19.352Z,4.00
2022-10-07T03:29:46.324Z,5.20
2022-10-07T03:32:13.462Z,4.50
2022-10-07T03:34:40.546Z,3.87
2022-10-07T03:37:07.952Z,3.90
2022-10-07T03:39:34.950Z,4.53
2022-10-07T03:42:01.964Z,4.70
2022-10-07T03:44:28.881Z,5.40
2022-10-07T03:46:55.935Z,5.20
2022-10-07T03:49:25.724Z,4.77
2022-10-07T03:51:52.791Z,4.50
2022-10-07T03:54:19.818Z,4.20
2022-10-07T03:56:46.759Z,4.77
2022-10-07T03:59:15.247Z,4.17
2022-10-07T04:01:42.421Z,5.43
2022-10-07T04:04:09.428Z,4.80
2022-10-07T04:06:36.574Z,4.27
2022-10-07T04:09:03.563Z,4.87
2022-10-07T04:11:30.994Z,4.60
2022-10-07T04:14:00.645Z,4.93
2022-10-07T04:16:28.195Z,4.40
2022-10-07T04:18:56.193Z,4.73
2022-10-07T04:21:24.975Z,5.10
2022-10-07T04:23:55.270Z,4.50
2022-10-07T04:26:22.255Z,5.53
2022-10-07T04:28:49.390Z,5.40
2022-10-07T04:31:16.516Z,4.87
2022-10-07T04:33:44.242Z,5.03
2022-10-07T04:36:12.747Z,5.07
2022-10-07T04:38:39.771Z,5.37
2022-10-07T04:41:07.943Z,5.43
2022-10-07T04:43:35.342Z,5.33
2022-10-07T04:46:10.724Z,5.33
2022-10-07T04:48:37.665Z,4.90
2022-10-07T04:51:09.113Z,5.07
2022-10-07T04:53:40.994Z,4.67
2022-10-07T04:56:08.830Z,5.10
2022-10-07T04:58:36.877Z,5.03
2022-10-07T05:01:09.812Z,3.93
2022-10-07T05:03:40.047Z,4.73
2022-10-07T05:06:08.200Z,4.40
2022-10-07T05:08:35.477Z,6.10
2022-10-07T05:11:03.433Z,4.90
2022-10-07T05:13:34.285Z,4.37
2022-10-07T05:16:02.751Z,4.10
2022-10-07T05:18:31.344Z,4.07
2022-10-07T05:20:58.342Z,5.53
2022-10-07T05:23:28.709Z,4.87
2022-10-07T05:26:04.536Z,4.47
2022-10-07T05:28:32.060Z,4.27
2022-10-07T05:31:14.323Z,5.23
2022-10-07T05:33:42.779Z,4.70
2022-10-07T05:36:11.590Z,4.90
2022-10-07T05:38:38.991Z,5.07
2022-10-07T05:41:11.087Z,5.50
2022-10-07T05:43:43.105Z,4.60
2022-10-07T05:46:18.017Z,5.07
2022-10-07T05:48:52.490Z,5.27
2022-10-07T05:51:21.046Z,4.80
2022-10-07T05:53:48.256Z,4.40
2022-10-07T05:56:21.518Z,5.40
2022-10-07T05:58:50.424Z,4.17
2022-10-07T06:01:21.372Z,4.83
2022-10-07T06:03:52.390Z,5.70
2022-10-07T06:06:20.239Z,5.10
2022-10-07T06:08:48.002Z,5.70
2022-10-07T06:11:36.538Z,5.83
2022-10-07T06:14:05.182Z,5.00
2022-10-07T06:16:32.487Z,6.70
2022-10-07T06:19:00.262Z,6.03
2022-10-07T06:21:28.512Z,6.27
2022-10-07T06:23:58.373Z,6.40
2022-10-07T06:26:25.439Z,6.20
2022-10-07T06:28:52.349Z,6.30
2022-10-07T06:31:22.277Z,6.10
2022-10-07T06:33:50.313Z,6.27
2022-10-07T06:36:18.000Z,5.70
2022-10-07T06:38:54.147Z,5.90
2022-10-07T06:41:22.587Z,5.07
2022-10-07T06:43:49.881Z,6.13
2022-10-07T06:46:20.455Z,6.77
2022-10-07T06:48:47.794Z,6.47
2022-10-07T06:51:19.958Z,6.07
2022-10-07T06:53:52.998Z,5.93
2022-10-07T06:56:20.580Z,6.23
2022-10-07T06:58:49.708Z,6.40
2022-10-07T07:01:16.882Z,5.90
2022-10-07T07:03:43.994Z,6.23
2022-10-07T07:06:11.164Z,6.33
2022-10-07T07:08:41.030Z,6.03
2022-10-07T07:11:32.400Z,6.10
2022-10-07T07:13:59.636Z,6.33
2022-10-07T07:16:27.254Z,6.37
2022-10-07T07:18:57.058Z,6.43
2022-10-07T07:21:26.021Z,6.30
2022-10-07T07:23:53.110Z,6.93
2022-10-07T07:26:20.814Z,6.43
2022-10-07T07:28:59.008Z,6.23
2022-10-07T07:31:29.036Z,6.40
2022-10-07T07:34:07.204Z,6.90
2022-10-07T07:36:36.259Z,6.27
2022-10-07T07:39:11.617Z,6.13
2022-10-07T07:41:45.887Z,5.17
2022-10-07T07:44:16.998Z,5.20
2022-10-07T07:46:52.042Z,6.37
2022-10-07T07:49:20.881Z,5.80
2022-10-07T07:51:48.565Z,6.47
2022-10-07T07:54:16.022Z,5.97
2022-10-07T07:56:43.079Z,6.30
2022-10-07T07:59:11.622Z,6.50
2022-10-07T08:01:39.009Z,5.90
2022-10-07T08:04:06.467Z,6.00
2022-10-07T08:06:34.710Z,7.00
2022-10-07T08:09:01.782Z,5.83
2022-10-07T08:11:29.433Z,6.43
2022-10-07T08:13:57.097Z,6.17
2022-10-07T08:16:28.138Z,5.90
2022-10-07T08:18:57.494Z,5.83
2022-10-07T08:21:32.768Z,5.60
2022-10-07T08:24:03.102Z,5.73
2022-10-07T08:26:33.624Z,5.13
2022-10-07T08:29:01.505Z,5.07
2022-10-07T08:31:29.551Z,5.60
2022-10-07T08:34:00.939Z,5.77
2022-10-07T08:36:32.997Z,5.20
2022-10-07T08:39:02.406Z,5.63
2022-10-07T08:42:08.368Z,5.37
2022-10-07T08:44:44.962Z,5.23
2022-10-07T08:47:38.636Z,4.40
2022-10-07T08:50:57.434Z,5.03
2022-10-07T08:53:36.852Z,4.30
2022-10-07T08:56:16.585Z,3.90
2022-10-07T08:59:10.516Z,3.97
2022-10-07T09:02:33.274Z,3.47
2022-10-07T09:05:39.027Z,3.53
2022-10-07T09:08:30.562Z,3.33
2022-10-07T09:11:15.756Z,3.63
2022-10-07T09:13:56.079Z,3.23
2022-10-07T09:16:45.415Z,3.63
2022-10-07T09:19:39.444Z,3.37
2022-10-07T09:22:37.210Z,2.97
2022-10-07T09:25:15.821Z,3.00
2022-10-07T09:27:43.582Z,3.50
2022-10-07T09:30:14.392Z,3.20
2022-10-07T09:32:46.262Z,3.50
2022-10-07T09:35:17.512Z,2.63
2022-10-07T09:38:03.728Z,3.33
2022-10-07T09:41:07.916Z,2.80
2022-10-07T09:43:36.334Z,2.90
2022-10-07T09:46:03.498Z,3.23
2022-10-07T09:48:34.719Z,3.40
2022-10-07T09:51:32.763Z,3.07
2022-10-07T09:54:16.990Z,2.40
2022-10-07T09:56:47.059Z,3.10
2022-10-07T09:59:34.316Z,2.58
2022-10-07T10:02:24.879Z,2.13
2022-10-07T10:04:58.606Z,2.47
2022-10-07T10:07:36.188Z,1.90
2022-10-07T10:10:16.944Z,2.25
2022-10-07T10:12:51.175Z,4.43
2022-10-07T10:15:36.154Z,2.50
2022-10-07T10:18:34.034Z,1.50
2022-10-07T10:21:23.084Z,1.70
2022-10-07T10:24:06.319Z,2.00
2022-10-07T10:27:35.493Z,2.00
2022-10-07T10:30:16.488Z,2.17
2022-10-07T10:33:26.908Z,1.50
2022-10-07T10:36:15.277Z,1.77
2022-10-07T10:39:28.052Z,1.60
2022-10-07T10:42:02.689Z,1.98
2022-10-07T10:45:33.636Z,1.85
2022-10-07T10:48:38.969Z,1.60
2022-10-07T10:52:13.437Z,2.03
2022-10-07T10:55:12.352Z,2.00
2022-10-07T10:58:24.301Z,2.10
2022-10-07T11:01:09.757Z,1.90
2022-10-07T11:04:42.014Z,1.90
2022-10-07T11:07:31.667Z,1.70
2022-10-07T11:10:37.511Z,2.30
2022-10-07T11:13:13.321Z,2.40
2022-10-07T11:15:51.684Z,1.40
2022-10-07T11:18:42.071Z,1.48
2022-10-07T11:21:20.362Z,1.25
2022-10-07T11:24:11.022Z,1.50
2022-10-07T11:26:57.349Z,1.27
2022-10-07T11:30:08.074Z,1.10
2022-10-07T11:33:06.678Z,1.27
2022-10-07T11:35:43.904Z,1.25
2022-10-07T11:38:10.703Z,1.45
2022-10-07T11:40:58.094Z,1.42
2022-10-07T11:43:58.482Z,1.20
2022-10-07T11:46:41.015Z,1.70
2022-10-07T11:49:55.922Z,1.40
2022-10-07T11:52:33.762Z,1.48
2022-10-07T11:55:22.033Z,1.27
2022-10-07T11:57:58.643Z,1.30
2022-10-07T12:00:36.938Z,1.33
2022-10-07T12:03:33.690Z,1.50
2022-10-07T12:06:11.713Z,1.60
2022-10-07T12:08:42.010Z,1.38
2022-10-07T12:11:12.441Z,1.60
2022-10-07T12:13:50.732Z,1.73
2022-10-07T12:16:52.024Z,1.50
2022-10-07T12:19:23.625Z,1.42
2022-10-07T12:22:03.049Z,1.50
2022-10-07T12:24:36.766Z,1.48
2022-10-07T12:27:26.531Z,1.27
2022-10-07T12:30:02.802Z,1.33
2022-10-07T12:32:53.669Z,1.73
2022-10-07T12:35:35.855Z,1.27
2022-10-07T12:38:10.735Z,1.42
2022-10-07T12:40:51.017Z,1.30
2022-10-07T12:44:15.370Z,1.05
2022-10-07T12:47:18.528Z,1.15
2022-10-07T12:50:13.000Z,1.10
2022-10-07T12:52:56.339Z,0.95
2022-10-07T12:55:38.074Z,1.45
2022-10-07T12:59:14.390Z,1.20
2022-10-07T13:02:31.605Z,1.27
2022-10-07T13:05:49.219Z,1.20
2022-10-07T13:09:06.648Z,1.30
2022-10-07T13:12:15.103Z,1.40
2022-10-07T13:15:20.803Z,1.20
2022-10-07T13:18:38.506Z,1.15
2022-10-07T13:21:33.146Z,1.70
2022-10-07T13:24:00.238Z,1.55
2022-10-07T13:26:27.599Z,1.60
2022-10-07T13:29:00.681Z,1.60
2022-10-07T13:31:47.959Z,1.52
2022-10-07T13:34:20.072Z,1.38
2022-10-07T13:36:48.928Z,1.55
2022-10-07T13:39:23.238Z,1.20
2022-10-07T13:41:59.641Z,1.60
2022-10-07T13:44:31.975Z,1.05
2022-10-07T13:47:05.686Z,1.30
2022-10-07T13:49:45.439Z,1.38
2022-10-07T13:52:44.332Z,1.42
2022-10-07T13:55:35.751Z,1.98
2022-10-07T13:58:06.577Z,1.38
2022-10-07T14:00:47.073Z,1.40
2022-10-07T14:03:16.985Z,1.40
2022-10-07T14:05:53.890Z,1.83
2022-10-07T14:08:30.415Z,1.05
2022-10-07T14:11:21.300Z,1.30
2022-10-07T14:13:48.288Z,1.75
2022-10-07T14:16:24.329Z,1.40
2022-10-07T14:18:52.661Z,1.35
2022-10-07T14:21:19.778Z,1.40
2022-10-07T14:23:49.865Z,1.27
2022-10-07T14:26:18.012Z,1.70
2022-10-07T14:28:54.379Z,1.25
2022-10-07T14:31:40.298Z,1.25
2022-10-07T14:34:37.226Z,1.10
2022-10-07T14:37:15.692Z,1.60
2022-10-07T14:39:53.633Z,1.10
2022-10-07T14:42:27.123Z,1.40
2022-10-07T14:45:17.466Z,1.48
2022-10-07T14:47:45.618Z,1.30
2022-10-07T14:50:14.177Z,1.23
2022-10-07T14:52:52.114Z,1.23
2022-10-07T14:55:26.207Z,1.25
2022-10-07T14:57:53.629Z,1.38
2022-10-07T15:00:29.336Z,1.20
2022-10-07T15:02:57.003Z,1.17
2022-10-07T15:05:24.467Z,0.90
2022-10-07T15:07:51.796Z,1.00
2022-10-07T15:10:23.591Z,1.00
2022-10-07T15:13:11.038Z,1.40
2022-10-07T15:15:46.805Z,1.15
2022-10-07T15:18:14.130Z,0.98
2022-10-07T15:20:41.980Z,1.20
2022-10-07T15:23:09.410Z,1.20
2022-10-07T15:25:42.465Z,1.00
2022-10-07T15:28:09.629Z,1.20
2022-10-07T15:30:39.355Z,1.20
2022-10-07T15:33:06.743Z,1.10
2022-10-07T15:35:37.305Z,2.85
2022-10-07T15:38:04.365Z,1.85
2022-10-07T15:40:31.484Z,1.30
2022-10-07T15:42:59.033Z,1.05
2022-10-07T15:45:26.797Z,1.98
2022-10-07T15:47:58.209Z,0.90
2022-10-07T15:50:27.458Z,1.40
2022-10-07T15:52:54.688Z,1.60
2022-10-07T15:55:21.666Z,1.70
2022-10-07T15:57:48.763Z,1.60
2022-10-07T16:00:16.908Z,1.15
2022-10-07T16:02:45.123Z,1.25
2022-10-07T16:05:12.842Z,1.10
2022-10-07T16:07:39.810Z,1.40
2022-10-07T16:10:12.684Z,1.33
2022-10-07T16:12:40.088Z,1.47
2022-10-07T16:15:07.530Z,1.40
2022-10-07T16:17:35.015Z,1.50
2022-10-07T16:20:05.533Z,1.70
2022-10-07T16:22:35.944Z,1.80
2022-10-07T16:25:02.866Z,1.30
2022-10-07T16:27:49.775Z,1.40
2022-10-07T16:30:35.523Z,1.27
2022-10-07T16:33:02.457Z,1.30
2022-10-07T16:35:32.432Z,1.63
2022-10-07T16:37:59.836Z,1.97
2022-10-07T16:40:26.741Z,1.60
2022-10-07T16:42:53.687Z,1.50
2022-10-07T16:45:21.431Z,1.60
2022-10-07T16:47:48.638Z,1.60
2022-10-07T16:50:15.888Z,1.50
2022-10-07T16:52:42.938Z,1.90
2022-10-07T16:55:10.024Z,1.80
2022-10-07T16:57:37.163Z,1.70
2022-10-07T17:00:05.152Z,1.63
2022-10-07T17:02:32.082Z,1.40
2022-10-07T17:04:59.021Z,1.60
2022-10-07T17:07:25.940Z,1.23
2022-10-07T17:09:52.900Z,1.57
2022-10-07T17:12:21.796Z,1.37
2022-10-07T17:14:48.717Z,1.47
2022-10-07T17:17:17.123Z,1.30
2022-10-07T17:19:44.072Z,1.50
2022-10-07T17:22:11.060Z,1.40
2022-10-07T17:24:38.009Z,1.93
2022-10-07T17:27:08.842Z,1.60
2022-10-07T17:29:38.252Z,1.77
2022-10-07T17:32:05.651Z,1.77
2022-10-07T17:34:34.172Z,1.67
2022-10-07T17:37:01.173Z,2.43
2022-10-07T17:39:28.225Z,1.73
2022-10-07T17:41:55.156Z,2.63
2022-10-07T17:44:22.201Z,2.20
2022-10-07T17:46:49.319Z,2.60
2022-10-07T17:49:16.259Z,2.60
2022-10-07T17:51:44.023Z,2.17
2022-10-07T17:54:13.924Z,2.83
2022-10-07T17:56:41.877Z,2.50
2022-10-07T17:59:08.822Z,2.77
2022-10-07T18:01:36.196Z,3.03
2022-10-07T18:04:11.434Z,3.53
2022-10-07T18:06:39.902Z,3.53
2022-10-07T18:09:15.286Z,2.53
2022-10-07T18:12:01.166Z,3.07
2022-10-07T18:14:51.094Z,3.40
2022-10-07T18:17:20.436Z,2.90
2022-10-07T18:19:47.501Z,3.07
2022-10-07T18:22:14.426Z,2.43
2022-10-07T18:24:41.521Z,3.40
2022-10-07T18:27:08.517Z,2.63
2022-10-07T18:29:38.027Z,2.63
2022-10-07T18:32:08.527Z,2.70
2022-10-07T18:34:36.202Z,3.27
2022-10-07T18:37:03.149Z,2.60
2022-10-07T18:39:30.162Z,3.73
2022-10-07T18:41:58.159Z,3.33
2022-10-07T18:44:25.544Z,3.17
2022-10-07T18:46:53.214Z,3.10
2022-10-07T18:49:20.108Z,3.03
2022-10-07T18:51:50.279Z,3.60
2022-10-07T18:54:19.050Z,3.10
2022-10-07T18:56:50.987Z,2.90
2022-10-07T18:59:19.677Z,2.63
2022-10-07T19:01:50.543Z,3.40
2022-10-07T19:04:18.866Z,3.10
2022-10-07T19:06:46.470Z,3.03
2022-10-07T19:09:21.016Z,2.60
2022-10-07T19:11:49.246Z,3.27
2022-10-07T19:14:16.863Z,2.67
2022-10-07T19:16:49.612Z,2.57
2022-10-07T19:19:21.190Z,2.83
2022-10-07T19:21:54.933Z,3.10
2022-10-07T19:24:45.328Z,3.37
2022-10-07T19:27:12.319Z,2.57
2022-10-07T19:29:39.324Z,3.47
2022-10-07T19:32:08.539Z,3.57
2022-10-07T19:34:36.101Z,3.27
2022-10-07T19:37:03.299Z,3.90
2022-10-07T19:39:30.253Z,4.13
2022-10-07T19:41:58.695Z,3.87
2022-10-07T19:44:25.689Z,3.00
2022-10-07T19:46:54.171Z,4.23
2022-10-07T19:49:22.208Z,4.50
2022-10-07T19:51:49.157Z,3.50
2022-10-07T19:54:16.205Z,4.03
2022-10-07T19:56:45.030Z,3.47
2022-10-07T19:59:14.331Z,4.07
2022-10-07T20:01:45.194Z,4.37
2022-10-07T20:04:20.891Z,4.10
2022-10-07T20:06:48.184Z,3.93
2022-10-07T20:09:18.365Z,4.90
2022-10-07T20:11:46.744Z,5.40
2022-10-07T20:14:16.018Z,4.67
2022-10-07T20:16:43.208Z,4.30
2022-10-07T20:19:18.548Z,4.70
2022-10-07T20:21:46.554Z,3.67
2022-10-07T20:24:16.204Z,3.73
2022-10-07T20:26:44.117Z,3.77
2022-10-07T20:29:13.637Z,4.67
2022-10-07T20:31:42.150Z,4.20
2022-10-07T20:34:15.885Z,3.43
2022-10-07T20:36:43.271Z,3.60
2022-10-07T20:39:39.179Z,4.10
2022-10-07T20:42:22.123Z,5.13
2022-10-07T20:44:50.652Z,4.40
2022-10-07T20:47:19.850Z,4.97
2022-10-07T20:49:48.563Z,5.17
2022-10-07T20:52:22.725Z,5.40
2022-10-07T20:54:51.516Z,3.90
2022-10-07T20:57:25.663Z,5.10
2022-10-07T20:59:52.681Z,5.70
2022-10-07T21:02:23.051Z,4.40
2022-10-07T21:04:50.085Z,5.37
2022-10-07T21:07:18.679Z,5.17
2022-10-07T21:09:47.110Z,4.50
2022-10-07T21:12:17.935Z,5.90
2022-10-07T21:14:46.965Z,5.23
2022-10-07T21:17:14.948Z,4.20
2022-10-07T21:19:43.412Z,5.57
2022-10-07T21:22:10.557Z,6.00
2022-10-07T21:24:37.496Z,4.63
2022-10-07T21:27:07.268Z,5.03
2022-10-07T21:29:39.188Z,4.23
2022-10-07T21:32:09.740Z,4.57
2022-10-07T21:34:37.531Z,5.10
2022-10-07T21:37:04.880Z,5.20
2022-10-07T21:39:32.243Z,4.77
2022-10-07T21:41:59.771Z,5.10
2022-10-07T21:44:27.460Z,6.03
2022-10-07T21:46:54.441Z,5.60
2022-10-07T21:49:21.422Z,5.30
2022-10-07T21:51:48.461Z,5.07
2022-10-07T21:54:15.538Z,4.17
2022-10-07T21:56:45.784Z,4.87
2022-10-07T21:59:13.960Z,5.17
2022-10-07T22:01:42.395Z,6.30
2022-10-07T22:04:19.173Z,4.23
2022-10-07T22:07:05.151Z,4.77
2022-10-07T22:09:33.201Z,4.20
2022-10-07T22:12:00.214Z,4.87
2022-10-07T22:14:27.754Z,6.40
2022-10-07T22:16:54.786Z,5.73
2022-10-07T22:19:22.853Z,5.90
2022-10-07T22:21:49.847Z,5.57
2022-10-07T22:24:16.834Z,4.30
2022-10-07T22:26:47.746Z,5.03
2022-10-07T22:29:18.662Z,4.00
2022-10-07T22:31:46.953Z,4.43
2022-10-07T22:34:33.890Z,4.70
2022-10-07T22:37:01.592Z,4.13
2022-10-07T22:39:29.339Z,5.13
2022-10-07T22:41:58.396Z,5.73
2022-10-07T22:44:28.503Z,5.23
2022-10-07T22:46:59.154Z,6.10
2022-10-07T22:49:29.818Z,4.67
2022-10-07T22:52:00.551Z,5.87
2022-10-07T22:54:27.804Z,5.63
2022-10-07T22:56:54.827Z,6.10
2022-10-07T22:59:22.424Z,4.53
2022-10-07T23:01:49.359Z,5.67
2022-10-07T23:04:20.082Z,5.87
2022-10-07T23:06:47.064Z,6.63
2022-10-07T23:09:13.992Z,6.47
2022-10-07T23:11:41.060Z,4.53
2022-10-07T23:14:08.068Z,5.50
2022-10-07T23:16:34.964Z,4.27
2022-10-07T23:19:02.042Z,5.07
2022-10-07T23:21:34.614Z,5.63
2022-10-07T23:24:07.431Z,5.80
2022-10-07T23:26:36.445Z,4.90
2022-10-07T23:29:04.508Z,5.77
2022-10-07T23:31:32.983Z,5.80
2022-10-07T23:34:02.173Z,5.20
2022-10-07T23:36:29.943Z,5.90
2022-10-07T23:39:00.184Z,5.67
2022-10-07T23:41:30.319Z,4.53
2022-10-07T23:44:02.253Z,6.37
2022-10-07T23:46:32.984Z,6.53
2022-10-07T23:49:00.449Z,5.40
2022-10-07T23:51:29.114Z,6.27
2022-10-07T23:53:57.142Z,7.13
2022-10-07T23:56:24.364Z,5.63
2022-10-07T23:58:51.470Z,6.40
